sensor_id;sensor_type;location;lat;lon;timestamp;pressure;altitude;pressure_sealevel;temperature;humidity
75298;BME280;63896;45.990;18.688;2023-02-15T00:02:55;102579.38;;;-1.92;90.31
75298;BME280;63896;45.990;18.688;2023-02-15T00:05:57;102578.69;;;-1.96;90.75
75298;BME280;63896;45.990;18.688;2023-02-15T00:09:01;102583.28;;;-2.01;91.19
75298;BME280;63896;45.990;18.688;2023-02-15T00:12:05;102590.34;;;-2.03;90.82
75298;BME280;63896;45.990;18.688;2023-02-15T00:15:08;102576.81;;;-2.09;91.54
75298;BME280;63896;45.990;18.688;2023-02-15T00:18:11;102578.88;;;-2.16;91.07
75298;BME280;63896;45.990;18.688;2023-02-15T00:21:14;102586.09;;;-2.21;91.25
75298;BME280;63896;45.990;18.688;2023-02-15T00:24:18;102583.59;;;-2.24;91.78
75298;BME280;63896;45.990;18.688;2023-02-15T00:27:21;102575.22;;;-2.29;91.38
75298;BME280;63896;45.990;18.688;2023-02-15T00:30:24;102573.75;;;-2.34;91.60
75298;BME280;63896;45.990;18.688;2023-02-15T00:33:27;102581.72;;;-2.37;91.51
75298;BME280;63896;45.990;18.688;2023-02-15T00:36:31;102580.88;;;-2.38;91.52
75298;BME280;63896;45.990;18.688;2023-02-15T00:39:34;102570.41;;;-2.36;91.87
75298;BME280;63896;45.990;18.688;2023-02-15T00:42:37;102574.09;;;-2.41;91.96
75298;BME280;63896;45.990;18.688;2023-02-15T00:45:39;102568.50;;;-2.50;92.60
75298;BME280;63896;45.990;18.688;2023-02-15T00:48:42;102573.00;;;-2.54;92.83
75298;BME280;63896;45.990;18.688;2023-02-15T00:51:46;102564.66;;;-2.43;93.21
75298;BME280;63896;45.990;18.688;2023-02-15T00:54:48;102570.81;;;-2.44;93.29
75298;BME280;63896;45.990;18.688;2023-02-15T00:57:51;102566.34;;;-2.42;92.49
75298;BME280;63896;45.990;18.688;2023-02-15T01:00:54;102561.31;;;-2.45;92.73
75298;BME280;63896;45.990;18.688;2023-02-15T01:03:58;102551.31;;;-2.53;92.59
75298;BME280;63896;45.990;18.688;2023-02-15T01:07:04;102555.66;;;-2.53;92.63
75298;BME280;63896;45.990;18.688;2023-02-15T01:10:08;102553.06;;;-2.53;93.04
75298;BME280;63896;45.990;18.688;2023-02-15T01:13:11;102551.47;;;-2.56;92.67
75298;BME280;63896;45.990;18.688;2023-02-15T01:16:14;102548.72;;;-2.53;92.99
75298;BME280;63896;45.990;18.688;2023-02-15T01:19:17;102550.13;;;-2.47;92.89
75298;BME280;63896;45.990;18.688;2023-02-15T01:22:20;102548.47;;;-2.48;92.58
75298;BME280;63896;45.990;18.688;2023-02-15T01:25:23;102547.63;;;-2.49;92.52
75298;BME280;63896;45.990;18.688;2023-02-15T01:28:26;102547.19;;;-2.57;92.21
75298;BME280;63896;45.990;18.688;2023-02-15T01:31:30;102544.44;;;-2.71;92.72
75298;BME280;63896;45.990;18.688;2023-02-15T01:34:33;102541.00;;;-2.71;92.56
75298;BME280;63896;45.990;18.688;2023-02-15T01:37:36;102541.97;;;-2.74;92.78
75298;BME280;63896;45.990;18.688;2023-02-15T01:40:39;102537.94;;;-2.79;92.83
75298;BME280;63896;45.990;18.688;2023-02-15T01:43:47;102546.00;;;-2.85;92.89
75298;BME280;63896;45.990;18.688;2023-02-15T01:46:53;102544.41;;;-2.88;93.64
75298;BME280;63896;45.990;18.688;2023-02-15T01:50:39;102545.25;;;-2.88;93.08
75298;BME280;63896;45.990;18.688;2023-02-15T01:53:47;102544.25;;;-2.85;93.25
75298;BME280;63896;45.990;18.688;2023-02-15T01:56:56;102534.50;;;-2.80;93.54
75298;BME280;63896;45.990;18.688;2023-02-15T02:00:02;102541.38;;;-2.79;93.20
75298;BME280;63896;45.990;18.688;2023-02-15T02:03:14;102541.06;;;-2.73;92.97
75298;BME280;63896;45.990;18.688;2023-02-15T02:06:17;102536.16;;;-2.62;92.70
75298;BME280;63896;45.990;18.688;2023-02-15T02:09:20;102531.56;;;-2.74;92.88
75298;BME280;63896;45.990;18.688;2023-02-15T02:12:23;102543.66;;;-2.73;93.30
75298;BME280;63896;45.990;18.688;2023-02-15T02:15:52;102536.47;;;-2.85;93.00
75298;BME280;63896;45.990;18.688;2023-02-15T02:29:26;102541.34;;;-2.96;93.45
75298;BME280;63896;45.990;18.688;2023-02-15T02:36:35;102539.81;;;-3.00;92.98
75298;BME280;63896;45.990;18.688;2023-02-15T02:43:06;102543.88;;;-2.95;93.35
75298;BME280;63896;45.990;18.688;2023-02-15T02:46:33;102534.13;;;-3.08;93.67
75298;BME280;63896;45.990;18.688;2023-02-15T02:49:40;102535.44;;;-3.17;94.24
75298;BME280;63896;45.990;18.688;2023-02-15T02:52:52;102530.38;;;-3.20;94.23
75298;BME280;63896;45.990;18.688;2023-02-15T02:55:58;102531.38;;;-3.22;94.20
75298;BME280;63896;45.990;18.688;2023-02-15T03:02:20;102528.16;;;-3.27;94.38
75298;BME280;63896;45.990;18.688;2023-02-15T03:05:27;102533.81;;;-3.19;94.33
75298;BME280;63896;45.990;18.688;2023-02-15T03:08:36;102541.59;;;-3.19;94.20
75298;BME280;63896;45.990;18.688;2023-02-15T03:11:44;102534.50;;;-3.16;93.79
75298;BME280;63896;45.990;18.688;2023-02-15T03:14:52;102530.38;;;-3.20;94.45
75298;BME280;63896;45.990;18.688;2023-02-15T03:17:59;102533.66;;;-3.16;94.64
75298;BME280;63896;45.990;18.688;2023-02-15T03:21:07;102531.16;;;-3.18;94.38
75298;BME280;63896;45.990;18.688;2023-02-15T03:24:21;102543.66;;;-3.26;95.75
75298;BME280;63896;45.990;18.688;2023-02-15T03:27:34;102532.97;;;-3.20;95.55
75298;BME280;63896;45.990;18.688;2023-02-15T03:30:42;102530.69;;;-3.26;95.48
75298;BME280;63896;45.990;18.688;2023-02-15T03:33:58;102540.91;;;-3.23;95.33
75298;BME280;63896;45.990;18.688;2023-02-15T03:37:12;102533.28;;;-3.26;95.21
75298;BME280;63896;45.990;18.688;2023-02-15T03:40:23;102543.94;;;-3.13;96.03
75298;BME280;63896;45.990;18.688;2023-02-15T03:44:06;102548.47;;;-3.18;95.36
75298;BME280;63896;45.990;18.688;2023-02-15T03:47:19;102541.81;;;-3.24;95.40
75298;BME280;63896;45.990;18.688;2023-02-15T03:50:27;102543.81;;;-3.29;94.91
75298;BME280;63896;45.990;18.688;2023-02-15T03:53:50;102533.44;;;-3.29;95.02
75298;BME280;63896;45.990;18.688;2023-02-15T03:56:54;102541.13;;;-3.27;95.00
75298;BME280;63896;45.990;18.688;2023-02-15T04:00:20;102545.34;;;-3.25;94.99
75298;BME280;63896;45.990;18.688;2023-02-15T04:03:46;102540.53;;;-3.32;94.74
75298;BME280;63896;45.990;18.688;2023-02-15T04:06:51;102533.63;;;-3.33;94.90
75298;BME280;63896;45.990;18.688;2023-02-15T04:09:54;102528.44;;;-3.33;94.30
75298;BME280;63896;45.990;18.688;2023-02-15T04:13:15;102535.44;;;-3.36;94.79
75298;BME280;63896;45.990;18.688;2023-02-15T04:16:18;102535.88;;;-3.26;94.55
75298;BME280;63896;45.990;18.688;2023-02-15T04:19:21;102538.03;;;-3.36;94.06
75298;BME280;63896;45.990;18.688;2023-02-15T04:22:42;102536.09;;;-3.49;94.07
75298;BME280;63896;45.990;18.688;2023-02-15T04:26:04;102533.56;;;-3.51;94.13
75298;BME280;63896;45.990;18.688;2023-02-15T04:29:07;102538.16;;;-3.56;94.40
75298;BME280;63896;45.990;18.688;2023-02-15T04:32:10;102536.66;;;-3.61;94.29
75298;BME280;63896;45.990;18.688;2023-02-15T04:35:13;102543.09;;;-3.70;94.36
75298;BME280;63896;45.990;18.688;2023-02-15T04:38:16;102542.41;;;-3.73;95.21
75298;BME280;63896;45.990;18.688;2023-02-15T04:41:19;102543.19;;;-3.71;95.32
75298;BME280;63896;45.990;18.688;2023-02-15T04:44:22;102537.44;;;-3.78;95.83
75298;BME280;63896;45.990;18.688;2023-02-15T04:47:25;102533.28;;;-3.82;95.94
75298;BME280;63896;45.990;18.688;2023-02-15T04:50:28;102529.66;;;-3.78;95.83
75298;BME280;63896;45.990;18.688;2023-02-15T04:53:30;102536.16;;;-3.69;95.90
75298;BME280;63896;45.990;18.688;2023-02-15T04:56:33;102537.06;;;-3.70;95.86
75298;BME280;63896;45.990;18.688;2023-02-15T04:59:37;102529.03;;;-3.64;95.99
75298;BME280;63896;45.990;18.688;2023-02-15T05:02:40;102526.72;;;-3.52;95.59
75298;BME280;63896;45.990;18.688;2023-02-15T05:05:43;102528.69;;;-3.57;95.05
75298;BME280;63896;45.990;18.688;2023-02-15T05:08:46;102522.84;;;-3.62;94.82
75298;BME280;63896;45.990;18.688;2023-02-15T05:11:49;102519.84;;;-3.71;94.75
75298;BME280;63896;45.990;18.688;2023-02-15T05:14:52;102533.44;;;-3.85;94.85
75298;BME280;63896;45.990;18.688;2023-02-15T05:17:55;102532.09;;;-3.94;95.51
75298;BME280;63896;45.990;18.688;2023-02-15T05:20:58;102528.59;;;-3.93;95.66
75298;BME280;63896;45.990;18.688;2023-02-15T05:24:00;102523.25;;;-3.90;95.60
75298;BME280;63896;45.990;18.688;2023-02-15T05:27:23;102535.47;;;-3.92;95.44
75298;BME280;63896;45.990;18.688;2023-02-15T05:30:49;102529.03;;;-3.83;95.41
75298;BME280;63896;45.990;18.688;2023-02-15T05:33:52;102538.28;;;-3.77;94.96
75298;BME280;63896;45.990;18.688;2023-02-15T05:36:55;102528.94;;;-3.81;94.86
75298;BME280;63896;45.990;18.688;2023-02-15T05:39:58;102534.72;;;-3.75;94.07
75298;BME280;63896;45.990;18.688;2023-02-15T05:43:01;102530.84;;;-3.85;93.89
75298;BME280;63896;45.990;18.688;2023-02-15T05:46:04;102541.41;;;-3.90;93.88
75298;BME280;63896;45.990;18.688;2023-02-15T05:49:07;102542.78;;;-4.01;94.36
75298;BME280;63896;45.990;18.688;2023-02-15T05:52:10;102545.38;;;-4.01;94.63
75298;BME280;63896;45.990;18.688;2023-02-15T05:55:14;102546.19;;;-3.99;94.08
75298;BME280;63896;45.990;18.688;2023-02-15T05:58:17;102547.16;;;-4.02;94.58
75298;BME280;63896;45.990;18.688;2023-02-15T06:01:20;102557.53;;;-4.02;94.53
75298;BME280;63896;45.990;18.688;2023-02-15T06:04:25;102562.72;;;-4.02;94.89
75298;BME280;63896;45.990;18.688;2023-02-15T06:07:28;102561.38;;;-3.92;94.83
75298;BME280;63896;45.990;18.688;2023-02-15T06:10:31;102562.75;;;-3.83;95.23
75298;BME280;63896;45.990;18.688;2023-02-15T06:13:36;102562.44;;;-3.77;94.97
75298;BME280;63896;45.990;18.688;2023-02-15T06:16:40;102564.22;;;-3.59;94.90
75298;BME280;63896;45.990;18.688;2023-02-15T06:19:44;102568.00;;;-3.47;94.37
75298;BME280;63896;45.990;18.688;2023-02-15T06:22:48;102562.25;;;-3.35;94.32
75298;BME280;63896;45.990;18.688;2023-02-15T06:25:51;102565.38;;;-3.10;93.92
75298;BME280;63896;45.990;18.688;2023-02-15T06:28:54;102576.72;;;-2.94;93.07
75298;BME280;63896;45.990;18.688;2023-02-15T06:31:56;102578.75;;;-2.64;92.06
75298;BME280;63896;45.990;18.688;2023-02-15T06:35:00;102572.16;;;-2.54;91.91
75298;BME280;63896;45.990;18.688;2023-02-15T06:38:03;102574.22;;;-2.26;90.72
75298;BME280;63896;45.990;18.688;2023-02-15T06:41:06;102574.72;;;-2.03;89.55
75298;BME280;63896;45.990;18.688;2023-02-15T06:44:09;102574.00;;;-1.89;88.46
75298;BME280;63896;45.990;18.688;2023-02-15T06:47:12;102574.91;;;-1.57;87.59
75298;BME280;63896;45.990;18.688;2023-02-15T06:50:15;102577.75;;;-1.46;87.48
75298;BME280;63896;45.990;18.688;2023-02-15T06:53:18;102582.25;;;-1.17;85.15
75298;BME280;63896;45.990;18.688;2023-02-15T06:56:22;102580.41;;;-0.85;84.32
75298;BME280;63896;45.990;18.688;2023-02-15T06:59:25;102588.91;;;-0.66;84.28
75298;BME280;63896;45.990;18.688;2023-02-15T07:02:28;102581.59;;;-0.45;82.30
75298;BME280;63896;45.990;18.688;2023-02-15T07:05:33;102575.00;;;-0.36;82.16
75298;BME280;63896;45.990;18.688;2023-02-15T07:08:39;102579.91;;;-0.16;82.62
75298;BME280;63896;45.990;18.688;2023-02-15T07:11:42;102572.63;;;-0.11;80.28
75298;BME280;63896;45.990;18.688;2023-02-15T07:15:04;102574.84;;;0.52;81.23
75298;BME280;63896;45.990;18.688;2023-02-15T07:18:09;102576.88;;;1.80;77.04
75298;BME280;63896;45.990;18.688;2023-02-15T07:21:13;102557.19;;;3.09;73.41
75298;BME280;63896;45.990;18.688;2023-02-15T07:24:16;102549.72;;;4.19;68.48
75298;BME280;63896;45.990;18.688;2023-02-15T07:27:19;102556.16;;;4.91;64.44
75298;BME280;63896;45.990;18.688;2023-02-15T07:30:22;102552.50;;;5.88;60.50
75298;BME280;63896;45.990;18.688;2023-02-15T07:33:25;102542.44;;;7.40;54.70
75298;BME280;63896;45.990;18.688;2023-02-15T07:36:30;102549.19;;;8.54;50.93
75298;BME280;63896;45.990;18.688;2023-02-15T07:39:34;102549.16;;;7.90;50.92
75298;BME280;63896;45.990;18.688;2023-02-15T07:42:37;102542.28;;;8.71;49.09
75298;BME280;63896;45.990;18.688;2023-02-15T07:45:43;102548.78;;;9.73;47.59
75298;BME280;63896;45.990;18.688;2023-02-15T07:48:46;102540.03;;;10.90;43.80
75298;BME280;63896;45.990;18.688;2023-02-15T07:51:53;102533.53;;;11.90;41.27
75298;BME280;63896;45.990;18.688;2023-02-15T07:55:05;102524.88;;;12.74;39.42
75298;BME280;63896;45.990;18.688;2023-02-15T07:58:08;102522.28;;;12.88;38.39
75298;BME280;63896;45.990;18.688;2023-02-15T08:01:12;102524.81;;;13.13;38.05
75298;BME280;63896;45.990;18.688;2023-02-15T08:04:15;102522.66;;;14.42;35.54
75298;BME280;63896;45.990;18.688;2023-02-15T08:07:20;102524.31;;;15.49;33.67
75298;BME280;63896;45.990;18.688;2023-02-15T08:10:23;102524.69;;;13.96;36.80
75298;BME280;63896;45.990;18.688;2023-02-15T08:13:49;102525.03;;;15.08;34.90
75298;BME280;63896;45.990;18.688;2023-02-15T08:16:59;102530.16;;;14.53;35.93
75298;BME280;63896;45.990;18.688;2023-02-15T08:20:07;102529.00;;;14.76;36.35
75298;BME280;63896;45.990;18.688;2023-02-15T08:23:14;102531.69;;;15.19;35.79
75298;BME280;63896;45.990;18.688;2023-02-15T08:26:19;102522.75;;;16.16;33.64
75298;BME280;63896;45.990;18.688;2023-02-15T08:29:24;102519.69;;;16.26;33.76
75298;BME280;63896;45.990;18.688;2023-02-15T08:32:27;102525.69;;;16.76;33.48
75298;BME280;63896;45.990;18.688;2023-02-15T08:35:30;102525.13;;;17.72;31.99
75298;BME280;63896;45.990;18.688;2023-02-15T08:38:34;102522.31;;;16.60;33.71
75298;BME280;63896;45.990;18.688;2023-02-15T08:41:38;102515.19;;;16.94;33.95
75298;BME280;63896;45.990;18.688;2023-02-15T08:44:46;102511.50;;;17.34;33.13
75298;BME280;63896;45.990;18.688;2023-02-15T08:47:51;102521.81;;;17.44;33.14
75298;BME280;63896;45.990;18.688;2023-02-15T08:50:55;102506.50;;;18.86;30.48
75298;BME280;63896;45.990;18.688;2023-02-15T08:54:02;102516.78;;;18.06;31.86
75298;BME280;63896;45.990;18.688;2023-02-15T08:57:05;102522.63;;;17.38;32.82
75298;BME280;63896;45.990;18.688;2023-02-15T09:00:09;102502.47;;;18.19;31.51
75298;BME280;63896;45.990;18.688;2023-02-15T09:03:13;102511.03;;;18.47;31.39
75298;BME280;63896;45.990;18.688;2023-02-15T09:06:21;102510.31;;;20.14;28.81
75298;BME280;63896;45.990;18.688;2023-02-15T09:09:26;102507.31;;;20.22;28.44
75298;BME280;63896;45.990;18.688;2023-02-15T09:12:29;102497.66;;;22.20;26.08
75298;BME280;63896;45.990;18.688;2023-02-15T09:15:36;102510.69;;;23.24;24.83
75298;BME280;63896;45.990;18.688;2023-02-15T09:18:40;102511.13;;;22.71;24.68
75298;BME280;63896;45.990;18.688;2023-02-15T09:21:43;102504.75;;;19.72;28.61
75298;BME280;63896;45.990;18.688;2023-02-15T09:24:46;102504.53;;;21.53;26.21
75298;BME280;63896;45.990;18.688;2023-02-15T09:27:49;102497.56;;;20.21;28.19
75298;BME280;63896;45.990;18.688;2023-02-15T09:30:53;102509.03;;;21.06;27.04
75298;BME280;63896;45.990;18.688;2023-02-15T09:34:02;102508.91;;;21.54;26.37
75298;BME280;63896;45.990;18.688;2023-02-15T09:37:06;102500.13;;;21.05;27.25
75298;BME280;63896;45.990;18.688;2023-02-15T09:40:12;102494.00;;;22.99;24.73
75298;BME280;63896;45.990;18.688;2023-02-15T09:43:39;102490.00;;;23.90;23.30
75298;BME280;63896;45.990;18.688;2023-02-15T09:50:33;102492.09;;;22.83;23.97
75298;BME280;63896;45.990;18.688;2023-02-15T09:57:10;102490.19;;;21.99;26.15
75298;BME280;63896;45.990;18.688;2023-02-15T10:03:58;102482.78;;;23.24;24.75
75298;BME280;63896;45.990;18.688;2023-02-15T10:13:54;102472.19;;;22.32;25.23
75298;BME280;63896;45.990;18.688;2023-02-15T10:26:48;102463.88;;;21.59;25.76
75298;BME280;63896;45.990;18.688;2023-02-15T10:30:08;102446.88;;;23.34;24.04
75298;BME280;63896;45.990;18.688;2023-02-15T10:40:36;102449.75;;;23.82;23.10
75298;BME280;63896;45.990;18.688;2023-02-15T11:07:26;102411.78;;;25.78;20.27
75298;BME280;63896;45.990;18.688;2023-02-15T11:13:49;102400.38;;;24.02;21.91
75298;BME280;63896;45.990;18.688;2023-02-15T11:16:56;102398.84;;;23.67;22.55
75298;BME280;63896;45.990;18.688;2023-02-15T11:20:34;102407.44;;;22.88;23.42
75298;BME280;63896;45.990;18.688;2023-02-15T11:23:45;102393.25;;;25.70;20.12
75298;BME280;63896;45.990;18.688;2023-02-15T11:30:28;102376.22;;;25.33;20.37
75298;BME280;63896;45.990;18.688;2023-02-15T11:33:39;102375.69;;;24.89;21.33
75298;BME280;63896;45.990;18.688;2023-02-15T11:36:45;102361.91;;;24.68;21.75
75298;BME280;63896;45.990;18.688;2023-02-15T11:39:51;102375.38;;;24.53;21.57
75298;BME280;63896;45.990;18.688;2023-02-15T11:43:10;102365.94;;;25.45;20.58
75298;BME280;63896;45.990;18.688;2023-02-15T11:46:15;102350.41;;;24.51;21.82
75298;BME280;63896;45.990;18.688;2023-02-15T11:49:34;102354.28;;;23.80;22.35
75298;BME280;63896;45.990;18.688;2023-02-15T11:52:45;102344.72;;;24.21;22.26
75298;BME280;63896;45.990;18.688;2023-02-15T11:55:50;102350.13;;;24.21;21.83
75298;BME280;63896;45.990;18.688;2023-02-15T11:59:21;102344.31;;;24.12;22.14
75298;BME280;63896;45.990;18.688;2023-02-15T12:02:45;102348.88;;;24.65;21.79
75298;BME280;63896;45.990;18.688;2023-02-15T12:05:56;102340.56;;;24.82;21.29
75298;BME280;63896;45.990;18.688;2023-02-15T12:12:34;102334.06;;;25.25;20.69
75298;BME280;63896;45.990;18.688;2023-02-15T12:15:38;102325.34;;;23.86;22.70
75298;BME280;63896;45.990;18.688;2023-02-15T12:18:45;102325.50;;;25.01;21.31
75298;BME280;63896;45.990;18.688;2023-02-15T12:21:52;102326.56;;;24.27;22.25
75298;BME280;63896;45.990;18.688;2023-02-15T12:25:00;102319.75;;;23.49;22.62
75298;BME280;63896;45.990;18.688;2023-02-15T12:28:20;102327.66;;;23.34;23.00
75298;BME280;63896;45.990;18.688;2023-02-15T12:31:46;102322.41;;;23.65;22.49
75298;BME280;63896;45.990;18.688;2023-02-15T12:34:51;102313.81;;;23.30;23.58
75298;BME280;63896;45.990;18.688;2023-02-15T12:38:04;102314.28;;;23.92;22.73
75298;BME280;63896;45.990;18.688;2023-02-15T12:41:29;102302.97;;;23.30;23.43
75298;BME280;63896;45.990;18.688;2023-02-15T12:44:34;102298.09;;;23.49;23.10
75298;BME280;63896;45.990;18.688;2023-02-15T12:47:37;102290.59;;;24.09;22.09
75298;BME280;63896;45.990;18.688;2023-02-15T12:50:49;102287.84;;;23.34;23.80
75298;BME280;63896;45.990;18.688;2023-02-15T12:53:56;102285.91;;;23.30;23.56
75298;BME280;63896;45.990;18.688;2023-02-15T13:00:29;102281.47;;;24.57;22.41
75298;BME280;63896;45.990;18.688;2023-02-15T13:03:38;102284.22;;;23.67;23.37
75298;BME280;63896;45.990;18.688;2023-02-15T13:06:48;102275.03;;;24.00;22.55
75298;BME280;63896;45.990;18.688;2023-02-15T13:09:52;102270.06;;;23.65;23.22
75298;BME280;63896;45.990;18.688;2023-02-15T13:12:55;102275.31;;;23.06;24.04
75298;BME280;63896;45.990;18.688;2023-02-15T13:16:12;102270.44;;;23.47;23.38
75298;BME280;63896;45.990;18.688;2023-02-15T13:19:19;102266.88;;;22.81;23.95
75298;BME280;63896;45.990;18.688;2023-02-15T13:22:35;102261.38;;;22.09;25.21
75298;BME280;63896;45.990;18.688;2023-02-15T13:25:45;102259.19;;;22.06;24.84
75298;BME280;63896;45.990;18.688;2023-02-15T13:29:03;102257.19;;;22.52;24.61
75298;BME280;63896;45.990;18.688;2023-02-15T13:32:33;102271.19;;;19.91;28.21
75298;BME280;63896;45.990;18.688;2023-02-15T13:35:46;102265.78;;;21.14;26.54
75298;BME280;63896;45.990;18.688;2023-02-15T13:52:14;102258.47;;;21.26;26.40
75298;BME280;63896;45.990;18.688;2023-02-15T13:55:28;102257.13;;;20.88;27.44
75298;BME280;63896;45.990;18.688;2023-02-15T14:05:51;102245.75;;;20.40;27.89
75298;BME280;63896;45.990;18.688;2023-02-15T14:18:48;102252.22;;;19.01;30.20
75298;BME280;63896;45.990;18.688;2023-02-15T14:25:51;102242.66;;;18.44;31.32
75298;BME280;63896;45.990;18.688;2023-02-15T14:32:27;102250.97;;;16.78;34.06
75298;BME280;63896;45.990;18.688;2023-02-15T14:35:32;102240.56;;;14.41;39.15
75298;BME280;63896;45.990;18.688;2023-02-15T14:45:30;102244.06;;;15.10;37.74
75298;BME280;63896;45.990;18.688;2023-02-15T14:48:44;102239.25;;;15.94;36.09
75298;BME280;63896;45.990;18.688;2023-02-15T14:54:55;102246.28;;;12.65;42.67
75298;BME280;63896;45.990;18.688;2023-02-15T14:57:59;102247.19;;;11.74;45.54
75298;BME280;63896;45.990;18.688;2023-02-15T15:01:07;102238.22;;;11.06;47.12
75298;BME280;63896;45.990;18.688;2023-02-15T15:04:21;102236.69;;;10.72;48.18
75298;BME280;63896;45.990;18.688;2023-02-15T15:08:19;102235.03;;;9.90;51.26
75298;BME280;63896;45.990;18.688;2023-02-15T15:14:45;102235.84;;;9.75;52.13
75298;BME280;63896;45.990;18.688;2023-02-15T15:18:05;102230.75;;;9.31;53.44
75298;BME280;63896;45.990;18.688;2023-02-15T15:21:08;102230.25;;;9.28;53.75
75298;BME280;63896;45.990;18.688;2023-02-15T15:27:50;102219.28;;;8.73;56.23
75298;BME280;63896;45.990;18.688;2023-02-15T15:30:55;102218.66;;;8.53;57.12
75298;BME280;63896;45.990;18.688;2023-02-15T15:34:21;102220.97;;;8.30;58.19
75298;BME280;63896;45.990;18.688;2023-02-15T15:41:39;102215.47;;;8.06;59.38
75298;BME280;63896;45.990;18.688;2023-02-15T15:48:29;102210.66;;;7.84;59.90
75298;BME280;63896;45.990;18.688;2023-02-15T15:51:40;102212.97;;;7.69;60.54
75298;BME280;63896;45.990;18.688;2023-02-15T15:54:46;102209.63;;;7.49;61.20
75298;BME280;63896;45.990;18.688;2023-02-15T15:57:57;102207.84;;;7.23;62.13
75298;BME280;63896;45.990;18.688;2023-02-15T16:01:08;102213.03;;;7.14;62.73
75298;BME280;63896;45.990;18.688;2023-02-15T16:04:13;102213.63;;;7.08;62.89
75298;BME280;63896;45.990;18.688;2023-02-15T16:10:25;102207.66;;;6.79;63.54
75298;BME280;63896;45.990;18.688;2023-02-15T16:13:29;102205.91;;;6.60;64.59
75298;BME280;63896;45.990;18.688;2023-02-15T16:16:31;102213.75;;;6.43;65.09
75298;BME280;63896;45.990;18.688;2023-02-15T16:19:38;102209.06;;;6.27;65.82
75298;BME280;63896;45.990;18.688;2023-02-15T16:22:42;102204.78;;;6.07;66.47
75298;BME280;63896;45.990;18.688;2023-02-15T16:29:30;102216.31;;;5.87;67.71
75298;BME280;63896;45.990;18.688;2023-02-15T16:32:35;102208.63;;;5.74;68.44
75298;BME280;63896;45.990;18.688;2023-02-15T16:35:41;102197.94;;;5.56;68.29
75298;BME280;63896;45.990;18.688;2023-02-15T16:41:58;102205.41;;;5.32;69.98
75298;BME280;63896;45.990;18.688;2023-02-15T16:45:13;102208.28;;;5.19;70.11
75298;BME280;63896;45.990;18.688;2023-02-15T16:48:21;102200.75;;;5.05;70.89
75298;BME280;63896;45.990;18.688;2023-02-15T16:51:30;102201.94;;;4.92;71.48
75298;BME280;63896;45.990;18.688;2023-02-15T16:54:34;102206.19;;;4.83;72.13
75298;BME280;63896;45.990;18.688;2023-02-15T16:57:41;102200.91;;;4.73;72.66
75298;BME280;63896;45.990;18.688;2023-02-15T17:00:45;102207.22;;;4.61;73.08
75298;BME280;63896;45.990;18.688;2023-02-15T17:03:51;102206.34;;;4.51;73.33
75298;BME280;63896;45.990;18.688;2023-02-15T17:07:19;102201.97;;;4.41;73.48
75298;BME280;63896;45.990;18.688;2023-02-15T17:10:31;102214.34;;;4.29;74.64
75298;BME280;63896;45.990;18.688;2023-02-15T17:13:36;102219.09;;;4.14;75.22
75298;BME280;63896;45.990;18.688;2023-02-15T17:16:48;102215.03;;;4.10;75.71
75298;BME280;63896;45.990;18.688;2023-02-15T17:19:54;102207.50;;;3.96;75.92
75298;BME280;63896;45.990;18.688;2023-02-15T17:22:58;102210.75;;;3.89;76.38
75298;BME280;63896;45.990;18.688;2023-02-15T17:26:14;102212.78;;;3.85;76.89
75298;BME280;63896;45.990;18.688;2023-02-15T17:29:40;102212.47;;;3.67;77.58
75298;BME280;63896;45.990;18.688;2023-02-15T17:33:00;102208.31;;;3.65;77.49
75298;BME280;63896;45.990;18.688;2023-02-15T17:36:18;102202.38;;;3.52;78.26
75298;BME280;63896;45.990;18.688;2023-02-15T17:39:27;102204.00;;;3.43;78.33
75298;BME280;63896;45.990;18.688;2023-02-15T17:42:30;102203.63;;;3.36;79.32
75298;BME280;63896;45.990;18.688;2023-02-15T17:45:44;102209.03;;;3.24;79.31
75298;BME280;63896;45.990;18.688;2023-02-15T17:48:54;102209.41;;;3.08;80.23
75298;BME280;63896;45.990;18.688;2023-02-15T17:51:58;102206.41;;;3.02;81.03
75298;BME280;63896;45.990;18.688;2023-02-15T17:55:12;102208.44;;;2.98;81.58
75298;BME280;63896;45.990;18.688;2023-02-15T17:58:34;102207.16;;;2.93;81.73
75298;BME280;63896;45.990;18.688;2023-02-15T18:01:43;102204.41;;;2.83;81.93
75298;BME280;63896;45.990;18.688;2023-02-15T18:05:14;102206.94;;;2.73;82.51
75298;BME280;63896;45.990;18.688;2023-02-15T18:08:36;102208.09;;;2.58;83.31
75298;BME280;63896;45.990;18.688;2023-02-15T18:11:58;102212.28;;;2.61;83.17
75298;BME280;63896;45.990;18.688;2023-02-15T18:15:02;102211.66;;;2.57;83.79
75298;BME280;63896;45.990;18.688;2023-02-15T18:18:08;102212.75;;;2.55;83.52
75298;BME280;63896;45.990;18.688;2023-02-15T18:21:13;102208.91;;;2.48;84.28
75298;BME280;63896;45.990;18.688;2023-02-15T18:24:26;102211.16;;;2.41;84.36
75298;BME280;63896;45.990;18.688;2023-02-15T18:27:29;102204.13;;;2.30;85.51
75298;BME280;63896;45.990;18.688;2023-02-15T18:30:32;102205.28;;;2.15;86.06
75298;BME280;63896;45.990;18.688;2023-02-15T18:33:42;102213.75;;;2.19;85.63
75298;BME280;63896;45.990;18.688;2023-02-15T18:36:46;102203.00;;;2.11;85.73
75298;BME280;63896;45.990;18.688;2023-02-15T18:39:52;102203.00;;;2.11;85.35
75298;BME280;63896;45.990;18.688;2023-02-15T18:42:56;102196.00;;;2.11;85.91
75298;BME280;63896;45.990;18.688;2023-02-15T18:45:59;102199.22;;;2.15;85.12
75298;BME280;63896;45.990;18.688;2023-02-15T18:49:02;102201.94;;;2.13;85.58
75298;BME280;63896;45.990;18.688;2023-02-15T18:52:16;102198.69;;;1.99;84.88
75298;BME280;63896;45.990;18.688;2023-02-15T18:58:22;102204.88;;;1.74;84.97
75298;BME280;63896;45.990;18.688;2023-02-15T19:01:26;102197.13;;;1.61;85.34
75298;BME280;63896;45.990;18.688;2023-02-15T19:04:30;102208.63;;;1.59;85.43